Time;durP1;ratioP1;P1;durP2;ratioP2;P2;SDS_P1;SDS_P2;PMS_P1;PMS_P2;Temp;Humidity;BMP_temperature;BMP_pressure;BME280_temperature;BME280_humidity;BME280_pressure;Samples;Min_cycle;Max_cycle;Signal;HPM_P1;HPM_P2
2021/12/30 00:01:46;;;;;;;62.17;9.02;;;8.40;99.90;;;;;;5095789;28;20051;-76
2021/12/30 00:04:13;;;;;;;57.13;8.65;;;8.40;99.90;;;;;;5101430;28;20079;-82
2021/12/30 00:06:40;;;;;;;63.92;8.68;;;8.40;99.90;;;;;;5111989;28;20059;-77
2021/12/30 00:09:11;;;;;;;70.82;9.35;;;8.40;99.90;;;;;;5089444;28;20047;-76
2021/12/30 00:11:38;;;;;;;60.03;8.73;;;8.40;99.90;;;;;;5113439;28;20048;-76
2021/12/30 00:14:04;;;;;;;65.80;8.68;;;8.40;99.90;;;;;;5101173;28;20040;-78
2021/12/30 00:16:30;;;;;;;66.38;9.27;;;8.40;99.90;;;;;;5091729;28;20040;-76
2021/12/30 00:18:56;;;;;;;62.15;9.45;;;8.60;99.90;;;;;;5078691;28;20600;-76
2021/12/30 00:21:23;;;;;;;57.70;8.65;;;8.50;99.90;;;;;;5092273;28;20047;-77
2021/12/30 00:23:50;;;;;;;68.97;9.32;;;8.50;99.90;;;;;;5090865;28;20043;-76
2021/12/30 00:26:16;;;;;;;59.50;10.05;;;8.50;99.90;;;;;;5108413;28;20089;-77
2021/12/30 00:28:42;;;;;;;60.65;8.57;;;8.40;99.90;;;;;;5069143;28;20509;-76
2021/12/30 00:31:07;;;;;;;69.95;10.27;;;8.50;99.90;;;;;;5066949;28;20032;-76
2021/12/30 00:33:34;;;;;;;70.28;9.15;;;8.50;99.90;;;;;;5090682;28;20067;-76
2021/12/30 00:36:03;;;;;;;67.95;9.73;;;8.50;99.90;;;;;;5097133;28;20075;-76
2021/12/30 00:38:28;;;;;;;53.58;9.13;;;8.50;99.90;;;;;;5115080;28;20059;-76
2021/12/30 00:40:54;;;;;;;57.20;9.40;;;8.50;99.90;;;;;;5085691;28;20046;-76
2021/12/30 00:43:20;;;;;;;62.90;9.05;;;8.50;99.90;;;;;;5072820;28;20052;-76
2021/12/30 00:45:46;;;;;;;61.92;9.20;;;8.50;99.90;;;;;;5107983;28;20047;-76
2021/12/30 00:48:12;;;;;;;74.18;9.90;;;8.50;99.90;;;;;;5088848;28;20040;-75
2021/12/30 00:50:39;;;;;;;64.60;9.15;;;8.40;99.90;;;;;;5105625;28;20058;-76
2021/12/30 00:53:06;;;;;;;61.88;10.13;;;8.50;99.90;;;;;;5098046;28;20048;-75
2021/12/30 00:55:33;;;;;;;64.75;8.45;;;8.50;99.90;;;;;;5110707;28;20495;-75
2021/12/30 00:57:59;;;;;;;68.35;9.93;;;8.50;99.90;;;;;;5114814;28;20063;-75
2021/12/30 01:00:25;;;;;;;62.80;10.10;;;8.50;99.90;;;;;;5101866;28;20047;-76
2021/12/30 01:02:52;;;;;;;52.40;8.63;;;8.50;99.90;;;;;;5098397;28;20039;-76
2021/12/30 01:05:17;;;;;;;60.67;9.10;;;8.50;99.90;;;;;;5112958;28;20409;-76
2021/12/30 01:07:43;;;;;;;56.28;9.85;;;8.50;99.90;;;;;;5094583;28;20052;-75
2021/12/30 01:10:13;;;;;;;60.42;9.32;;;8.50;99.90;;;;;;5051770;28;20043;-75
2021/12/30 01:12:40;;;;;;;75.63;10.82;;;8.50;99.90;;;;;;5115015;28;20040;-75
2021/12/30 01:15:10;;;;;;;63.47;9.95;;;8.50;99.90;;;;;;5098412;28;20046;-75
2021/12/30 01:17:48;;;;;;;64.00;9.75;;;8.40;99.90;;;;;;5115217;28;20046;-75
2021/12/30 01:20:16;;;;;;;59.17;8.68;;;8.40;99.90;;;;;;5098020;28;20054;-76
2021/12/30 01:22:42;;;;;;;65.35;11.07;;;8.40;99.90;;;;;;5098335;28;20500;-76
2021/12/30 01:25:08;;;;;;;57.28;9.25;;;8.40;99.90;;;;;;5081456;28;20043;-82
2021/12/30 01:27:36;;;;;;;66.22;9.40;;;8.30;99.90;;;;;;5103741;28;20043;-76
2021/12/30 01:30:04;;;;;;;58.90;9.18;;;8.30;99.90;;;;;;5098045;28;20112;-75
2021/12/30 01:32:30;;;;;;;58.67;8.13;;;8.20;99.90;;;;;;5097310;28;20044;-75
2021/12/30 01:34:56;;;;;;;59.17;8.48;;;8.30;99.90;;;;;;5077624;28;20115;-75
2021/12/30 01:37:23;;;;;;;71.88;9.10;;;8.30;99.90;;;;;;5099930;28;20051;-76
2021/12/30 01:39:50;;;;;;;56.72;9.00;;;8.30;99.90;;;;;;5081563;28;20047;-76
2021/12/30 01:42:15;;;;;;;57.95;8.50;;;8.30;99.90;;;;;;5108630;28;20046;-76
2021/12/30 01:44:41;;;;;;;66.25;9.57;;;8.30;99.90;;;;;;5078170;28;20040;-76
2021/12/30 01:47:07;;;;;;;56.13;9.50;;;8.40;99.90;;;;;;5062245;28;20044;-76
2021/12/30 01:49:33;;;;;;;60.90;8.38;;;8.30;99.90;;;;;;5095914;28;20051;-76
2021/12/30 01:51:59;;;;;;;64.55;8.30;;;8.30;99.90;;;;;;5097693;28;20465;-75
2021/12/30 01:54:27;;;;;;;56.67;8.60;;;8.30;99.90;;;;;;5107876;28;20461;-76
2021/12/30 01:56:53;;;;;;;57.40;9.13;;;8.30;99.90;;;;;;5094344;28;20071;-77
2021/12/30 01:59:21;;;;;;;65.28;9.80;;;8.30;99.90;;;;;;5112121;28;20557;-76
2021/12/30 02:01:53;;;;;;;63.75;8.40;;;8.30;99.90;;;;;;5097394;28;20050;-76
2021/12/30 02:04:19;;;;;;;52.97;8.20;;;8.30;99.90;;;;;;5090559;28;20517;-76
2021/12/30 02:06:45;;;;;;;54.20;7.72;;;8.30;99.90;;;;;;5092678;28;20126;-76
2021/12/30 02:09:11;;;;;;;58.63;8.63;;;8.30;99.90;;;;;;5097510;28;20043;-76
2021/12/30 02:11:37;;;;;;;60.33;8.88;;;8.40;99.90;;;;;;5115285;28;20043;-76
2021/12/30 02:14:03;;;;;;;58.78;7.72;;;8.40;99.90;;;;;;5080112;28;20058;-76
2021/12/30 02:16:28;;;;;;;66.00;8.88;;;8.40;99.90;;;;;;5093762;28;20052;-77
2021/12/30 02:18:54;;;;;;;54.35;8.15;;;8.40;99.90;;;;;;5077419;28;20420;-76
2021/12/30 02:21:20;;;;;;;51.60;8.13;;;8.40;99.90;;;;;;5103885;28;20048;-76
2021/12/30 02:23:45;;;;;;;55.40;8.70;;;8.40;99.90;;;;;;5087636;28;20058;-79
2021/12/30 02:26:17;;;;;;;59.35;8.65;;;8.40;99.90;;;;;;5088003;28;20048;-77
2021/12/30 02:28:44;;;;;;;61.00;9.10;;;8.40;99.90;;;;;;5108260;28;20434;-77
2021/12/30 02:31:16;;;;;;;56.78;7.82;;;8.50;99.90;;;;;;5101095;28;20044;-77
2021/12/30 02:33:44;;;;;;;54.05;8.40;;;8.60;99.90;;;;;;5094268;28;20040;-77
2021/12/30 02:36:11;;;;;;;60.38;8.45;;;8.60;99.90;;;;;;5093883;28;20043;-78
2021/12/30 02:38:36;;;;;;;54.53;8.68;;;8.60;99.90;;;;;;5107316;28;20123;-77
2021/12/30 02:41:03;;;;;;;61.72;8.20;;;8.60;99.90;;;;;;5077768;28;20131;-77
2021/12/30 02:43:32;;;;;;;62.13;8.35;;;8.70;99.90;;;;;;5103651;28;20035;-84
2021/12/30 02:45:59;;;;;;;62.55;8.25;;;8.70;99.90;;;;;;5086490;28;20490;-78
2021/12/30 02:48:28;;;;;;;62.53;8.80;;;8.60;99.90;;;;;;5080031;28;20120;-77
2021/12/30 02:50:57;;;;;;;49.05;7.75;;;8.60;99.90;;;;;;5104679;28;20071;-78
2021/12/30 02:53:23;;;;;;;61.78;8.52;;;8.70;99.90;;;;;;5093130;28;20127;-78
2021/12/30 02:55:51;;;;;;;56.70;8.57;;;8.60;99.90;;;;;;5093758;28;20076;-77
2021/12/30 02:58:17;;;;;;;67.22;10.02;;;8.70;99.90;;;;;;5080158;28;20040;-77
2021/12/30 03:00:44;;;;;;;65.50;8.45;;;8.70;99.90;;;;;;5101651;28;20039;-77
2021/12/30 03:03:18;;;;;;;53.17;8.30;;;8.70;99.90;;;;;;5112968;28;20044;-77
2021/12/30 03:05:44;;;;;;;60.40;7.82;;;8.70;99.90;;;;;;5092556;28;20052;-77
2021/12/30 03:08:10;;;;;;;64.40;9.10;;;8.70;99.90;;;;;;5077458;28;20124;-77
2021/12/30 03:10:36;;;;;;;67.72;9.85;;;8.70;99.90;;;;;;5092394;28;20557;-78
2021/12/30 03:13:10;;;;;;;66.72;9.15;;;8.80;99.90;;;;;;5084261;28;20042;-77
2021/12/30 03:15:37;;;;;;;65.65;8.27;;;8.80;99.90;;;;;;5101678;28;20048;-77
2021/12/30 03:18:04;;;;;;;55.80;7.85;;;8.70;99.90;;;;;;5060820;28;20044;-77
2021/12/30 03:20:36;;;;;;;57.28;7.97;;;8.70;99.90;;;;;;5102611;28;20051;-77
2021/12/30 03:23:03;;;;;;;61.83;9.13;;;8.70;99.90;;;;;;5096246;28;20050;-77
2021/12/30 03:25:30;;;;;;;56.28;8.85;;;8.70;99.90;;;;;;5113568;28;20071;-77
2021/12/30 03:27:56;;;;;;;61.72;7.93;;;8.70;99.90;;;;;;5112737;28;20051;-77
2021/12/30 03:30:22;;;;;;;65.10;8.52;;;8.70;99.90;;;;;;5091180;28;20046;-78
2021/12/30 03:32:48;;;;;;;57.17;9.13;;;8.70;99.90;;;;;;5090943;28;20059;-80
2021/12/30 03:35:14;;;;;;;61.38;8.48;;;8.70;99.90;;;;;;5095863;28;20036;-77
2021/12/30 03:37:40;;;;;;;68.40;9.73;;;8.80;99.90;;;;;;5082795;28;20044;-77
2021/12/30 03:40:10;;;;;;;67.53;9.68;;;8.80;99.90;;;;;;5084261;28;20036;-78
2021/12/30 03:42:36;;;;;;;75.28;9.60;;;8.90;99.90;;;;;;5077084;28;20048;-90
2021/12/30 03:45:04;;;;;;;55.92;8.63;;;9.00;99.90;;;;;;5075392;28;20050;-77
2021/12/30 03:47:30;;;;;;;62.60;8.35;;;9.00;99.90;;;;;;5072180;28;20104;-77
2021/12/30 03:49:55;;;;;;;71.35;9.05;;;9.00;99.90;;;;;;5107235;28;20047;-78
2021/12/30 03:52:28;;;;;;;65.72;9.55;;;9.00;99.90;;;;;;5112383;28;20048;-77
2021/12/30 03:54:54;;;;;;;61.50;10.15;;;9.00;99.90;;;;;;5090790;28;20044;-78
2021/12/30 03:57:19;;;;;;;75.05;9.25;;;8.90;99.90;;;;;;5092413;28;20100;-77
2021/12/30 03:59:45;;;;;;;60.88;9.55;;;8.90;99.90;;;;;;5075247;28;20036;-77
2021/12/30 04:02:11;;;;;;;58.63;8.77;;;9.00;99.90;;;;;;5096532;28;20135;-77
2021/12/30 04:04:38;;;;;;;59.28;8.35;;;8.90;99.90;;;;;;5092069;28;20044;-77
2021/12/30 04:07:04;;;;;;;55.35;9.00;;;9.00;99.90;;;;;;5074892;28;20056;-77
2021/12/30 04:09:30;;;;;;;61.95;9.18;;;9.00;99.90;;;;;;5093344;28;20178;-77
2021/12/30 04:11:55;;;;;;;55.25;7.68;;;9.10;99.90;;;;;;5107455;28;20553;-77
2021/12/30 04:14:22;;;;;;;66.63;9.30;;;9.10;99.90;;;;;;5116257;28;20048;-78
2021/12/30 04:16:48;;;;;;;72.93;9.35;;;9.10;99.90;;;;;;5116264;28;20122;-78
2021/12/30 04:19:14;;;;;;;56.10;9.13;;;9.20;99.90;;;;;;5117326;28;20267;-77
2021/12/30 04:21:39;;;;;;;67.85;9.77;;;9.30;99.90;;;;;;5075396;28;20040;-81
2021/12/30 04:24:05;;;;;;;68.25;9.70;;;9.20;99.90;;;;;;5109528;28;20126;-78
2021/12/30 04:26:31;;;;;;;63.20;9.27;;;9.20;99.90;;;;;;5080962;28;20494;-77
2021/12/30 04:28:57;;;;;;;57.05;8.55;;;9.30;99.90;;;;;;5078560;28;20044;-78
2021/12/30 04:31:23;;;;;;;67.15;9.32;;;9.30;99.90;;;;;;5062430;28;20059;-78
2021/12/30 04:33:49;;;;;;;57.30;9.73;;;9.20;99.90;;;;;;5095831;28;20048;-78
2021/12/30 04:36:14;;;;;;;61.80;9.45;;;9.30;99.90;;;;;;5078777;28;20127;-78
2021/12/30 04:38:40;;;;;;;73.15;9.02;;;9.30;99.90;;;;;;5095747;28;20097;-78
2021/12/30 04:41:07;;;;;;;59.53;9.20;;;9.40;99.90;;;;;;5078539;28;20040;-78
2021/12/30 04:43:32;;;;;;;60.67;8.85;;;9.40;99.90;;;;;;5078822;28;20478;-80
2021/12/30 04:46:00;;;;;;;69.65;10.27;;;9.50;99.90;;;;;;5109389;28;20051;-78
2021/12/30 04:48:27;;;;;;;67.72;10.90;;;9.50;99.90;;;;;;5088693;28;20123;-78
2021/12/30 04:50:53;;;;;;;56.17;9.95;;;9.50;99.90;;;;;;5094544;28;20401;-78
2021/12/30 04:53:20;;;;;;;61.92;10.68;;;9.50;99.90;;;;;;5095506;28;20048;-78
2021/12/30 04:55:46;;;;;;;67.75;10.30;;;9.60;99.90;;;;;;5100955;28;20039;-78
2021/12/30 04:58:13;;;;;;;71.03;10.70;;;9.60;99.90;;;;;;5095386;28;20052;-78
2021/12/30 05:00:39;;;;;;;77.18;11.77;;;9.50;99.90;;;;;;5078491;28;20048;-78
2021/12/30 05:03:13;;;;;;;76.80;11.50;;;9.60;99.90;;;;;;5096978;28;20052;-78
2021/12/30 05:05:47;;;;;;;70.75;11.00;;;9.60;99.90;;;;;;5098419;28;20055;-78
2021/12/30 05:08:14;;;;;;;83.45;12.07;;;9.70;99.90;;;;;;5115851;28;20090;-78
2021/12/30 05:10:40;;;;;;;77.35;10.57;;;9.80;99.90;;;;;;5079695;28;20123;-78
2021/12/30 05:13:09;;;;;;;76.80;11.43;;;9.80;99.90;;;;;;5077672;28;20058;-78
2021/12/30 05:15:36;;;;;;;78.43;12.30;;;9.80;99.90;;;;;;5094243;28;20495;-82
2021/12/30 05:18:04;;;;;;;96.43;12.77;;;9.90;99.90;;;;;;5114451;28;20051;-78
2021/12/30 05:20:30;;;;;;;87.50;11.98;;;9.90;99.90;;;;;;5112766;28;20043;-78
2021/12/30 05:22:55;;;;;;;87.50;13.30;;;10.00;99.90;;;;;;5113107;28;20504;-78
2021/12/30 05:25:22;;;;;;;84.68;13.27;;;9.90;99.90;;;;;;5096164;28;20086;-79
2021/12/30 05:27:49;;;;;;;90.22;14.07;;;10.00;99.90;;;;;;5106068;28;20047;-88
2021/12/30 05:30:16;;;;;;;92.05;14.70;;;10.00;99.90;;;;;;5097828;28;20040;-78
2021/12/30 05:32:43;;;;;;;70.72;13.65;;;10.00;99.90;;;;;;5077588;28;20055;-78
2021/12/30 05:35:11;;;;;;;77.88;13.85;;;10.00;99.90;;;;;;5095236;28;20622;-78
2021/12/30 05:37:37;;;;;;;91.55;14.93;;;10.00;99.90;;;;;;5098113;28;20495;-78
2021/12/30 05:40:05;;;;;;;75.05;14.02;;;10.00;99.90;;;;;;5110588;28;20046;-78
2021/12/30 05:42:31;;;;;;;79.78;15.50;;;10.10;99.90;;;;;;5108775;28;20444;-78
2021/12/30 05:44:58;;;;;;;89.43;15.90;;;10.10;99.90;;;;;;5112096;28;20126;-78
2021/12/30 05:47:23;;;;;;;84.05;15.77;;;10.10;99.90;;;;;;5085998;28;20054;-77
2021/12/30 05:49:49;;;;;;;76.97;15.10;;;10.10;99.90;;;;;;5077403;28;20383;-78
2021/12/30 05:52:16;;;;;;;75.68;15.70;;;10.10;99.90;;;;;;5088983;28;20043;-77
2021/12/30 05:54:42;;;;;;;63.97;14.43;;;10.20;99.90;;;;;;5097707;28;20423;-77
2021/12/30 05:57:08;;;;;;;69.07;15.35;;;10.20;99.90;;;;;;5082895;28;20127;-78
2021/12/30 05:59:34;;;;;;;68.65;16.42;;;10.30;99.90;;;;;;5076963;28;20054;-77
2021/12/30 06:02:00;;;;;;;73.47;15.95;;;10.20;99.90;;;;;;5098643;28;20039;-79
2021/12/30 06:04:26;;;;;;;75.10;15.02;;;10.30;99.90;;;;;;5088185;28;20048;-77
2021/12/30 06:06:52;;;;;;;79.00;16.35;;;10.30;99.90;;;;;;5093376;28;20454;-86
2021/12/30 06:09:21;;;;;;;69.45;15.93;;;10.30;99.90;;;;;;5077252;28;20139;-78
2021/12/30 06:11:47;;;;;;;59.00;15.55;;;10.40;99.90;;;;;;5076849;28;20059;-78
2021/12/30 06:14:13;;;;;;;70.15;16.55;;;10.40;99.90;;;;;;5093749;28;20134;-78
2021/12/30 06:16:38;;;;;;;69.85;17.77;;;10.40;99.90;;;;;;5108617;28;20550;-78
2021/12/30 06:19:04;;;;;;;72.82;18.13;;;10.50;99.90;;;;;;5097891;28;20044;-82
2021/12/30 06:21:30;;;;;;;72.60;17.48;;;10.50;99.90;;;;;;5093908;28;20055;-78
2021/12/30 06:23:55;;;;;;;66.00;17.30;;;10.50;99.90;;;;;;5093120;28;20090;-78
2021/12/30 06:26:21;;;;;;;62.42;16.67;;;10.50;99.90;;;;;;5077117;28;20036;-78
2021/12/30 06:28:48;;;;;;;69.15;16.42;;;10.60;99.90;;;;;;5093918;28;20048;-78
2021/12/30 06:31:13;;;;;;;61.05;15.93;;;10.60;99.90;;;;;;5100453;28;20044;-78
2021/12/30 06:33:39;;;;;;;57.50;16.15;;;10.60;99.90;;;;;;5097426;28;20051;-78
2021/12/30 06:36:05;;;;;;;56.78;16.70;;;10.70;99.90;;;;;;5050779;28;20059;-79
2021/12/30 06:38:32;;;;;;;51.17;15.07;;;10.70;99.90;;;;;;5111710;28;20047;-78
2021/12/30 06:40:58;;;;;;;51.55;15.75;;;10.60;99.90;;;;;;5083819;28;20058;-78
2021/12/30 06:43:24;;;;;;;55.45;15.55;;;10.60;99.90;;;;;;5076462;28;20482;-78
2021/12/30 06:45:49;;;;;;;48.05;14.75;;;10.70;99.90;;;;;;5109177;28;20053;-78
2021/12/30 06:48:15;;;;;;;46.28;14.35;;;10.70;99.90;;;;;;5092918;28;20040;-78
2021/12/30 06:50:51;;;;;;;40.97;13.38;;;10.80;99.90;;;;;;5085009;28;20043;-78
2021/12/30 06:53:21;;;;;;;37.58;13.65;;;10.80;99.90;;;;;;5067714;28;20901;-78
2021/12/30 06:55:49;;;;;;;50.03;14.05;;;10.80;99.90;;;;;;5085813;28;20035;-78
2021/12/30 06:58:15;;;;;;;33.78;11.98;;;10.80;99.90;;;;;;5110178;28;20126;-78
2021/12/30 07:00:41;;;;;;;49.58;14.00;;;10.80;99.90;;;;;;5072281;28;20493;-78
2021/12/30 07:03:07;;;;;;;41.17;11.82;;;10.80;99.90;;;;;;5105278;28;20071;-79
2021/12/30 07:05:33;;;;;;;35.75;11.60;;;10.80;99.90;;;;;;5091840;28;20117;-78
2021/12/30 07:07:59;;;;;;;33.47;10.88;;;10.80;99.90;;;;;;5106084;28;20054;-82
2021/12/30 07:10:25;;;;;;;33.38;10.95;;;10.80;99.90;;;;;;5094857;28;20512;-79
2021/12/30 07:12:51;;;;;;;29.58;10.70;;;10.80;99.90;;;;;;5113430;28;20043;-78
2021/12/30 07:15:16;;;;;;;31.60;10.82;;;10.80;99.90;;;;;;5105489;28;20401;-78
2021/12/30 07:17:42;;;;;;;36.65;11.23;;;10.80;99.90;;;;;;5059233;28;20047;-78
2021/12/30 07:20:10;;;;;;;31.42;10.13;;;10.90;99.90;;;;;;5106932;28;20082;-78
2021/12/30 07:22:36;;;;;;;29.10;10.02;;;10.90;99.90;;;;;;5090133;28;20047;-78
2021/12/30 07:25:03;;;;;;;29.80;9.85;;;10.90;99.90;;;;;;5112439;28;20028;-80
2021/12/30 07:27:28;;;;;;;26.88;10.15;;;10.90;99.90;;;;;;5094191;28;20047;-79
2021/12/30 07:29:55;;;;;;;33.75;9.77;;;10.80;99.90;;;;;;5095437;28;20043;-86
2021/12/30 07:32:21;;;;;;;29.58;10.55;;;10.80;99.90;;;;;;5101681;28;20370;-80
2021/12/30 07:34:46;;;;;;;31.92;11.40;;;10.80;99.90;;;;;;5078023;28;20478;-79
2021/12/30 07:37:14;;;;;;;30.60;9.88;;;10.90;99.90;;;;;;5107300;28;20039;-80
2021/12/30 07:39:41;;;;;;;28.75;10.18;;;10.80;99.90;;;;;;5105594;28;20048;-81
2021/12/30 07:42:07;;;;;;;26.80;9.93;;;10.90;99.90;;;;;;5105415;28;20042;-80
2021/12/30 07:44:33;;;;;;;28.50;9.13;;;10.80;99.90;;;;;;5089568;28;20043;-82
2021/12/30 07:46:58;;;;;;;25.75;8.02;;;10.90;99.90;;;;;;5110905;28;20047;-81
2021/12/30 07:49:24;;;;;;;22.42;9.07;;;10.90;99.90;;;;;;5102125;28;20131;-80
2021/12/30 07:51:50;;;;;;;31.60;9.93;;;10.90;99.90;;;;;;5095652;28;20097;-82
2021/12/30 07:54:16;;;;;;;32.03;9.65;;;10.90;99.90;;;;;;5112169;28;20126;-81
2021/12/30 07:56:41;;;;;;;39.72;10.98;;;10.90;99.90;;;;;;5078459;28;20039;-82
2021/12/30 07:59:07;;;;;;;37.72;10.85;;;10.90;99.90;;;;;;5095358;28;20375;-83
2021/12/30 08:01:33;;;;;;;40.97;11.75;;;10.90;99.90;;;;;;5078820;28;20481;-80
2021/12/30 08:03:59;;;;;;;39.97;11.02;;;10.90;99.90;;;;;;5110822;28;20043;-85
2021/12/30 08:06:27;;;;;;;48.22;11.15;;;10.90;99.90;;;;;;5094944;28;20055;-83
2021/12/30 08:08:55;;;;;;;44.38;11.32;;;10.90;99.90;;;;;;5107847;28;20513;-84
2021/12/30 08:11:21;;;;;;;42.72;10.75;;;10.90;99.90;;;;;;5073973;28;20043;-81
2021/12/30 08:13:47;;;;;;;45.50;10.48;;;10.90;99.90;;;;;;5061934;28;20485;-81
2021/12/30 08:16:13;;;;;;;37.72;10.70;;;10.90;99.90;;;;;;5112000;28;20048;-83
2021/12/30 08:18:40;;;;;;;46.05;9.65;;;10.90;99.90;;;;;;5095726;28;20488;-79
2021/12/30 08:21:06;;;;;;;36.92;8.77;;;10.90;99.90;;;;;;5104403;28;20052;-85
2021/12/30 08:23:32;;;;;;;41.70;8.80;;;10.90;99.90;;;;;;5077980;28;20142;-81
2021/12/30 08:25:58;;;;;;;45.70;9.45;;;10.90;99.90;;;;;;5077399;28;20087;-84
2021/12/30 08:28:25;;;;;;;50.03;9.40;;;11.00;99.90;;;;;;5094281;28;20037;-82
2021/12/30 08:30:51;;;;;;;50.38;9.10;;;10.90;99.90;;;;;;5075079;28;20054;-80
2021/12/30 08:33:18;;;;;;;47.55;8.35;;;11.00;99.90;;;;;;5075588;28;20191;-80
2021/12/30 08:35:44;;;;;;;39.65;8.35;;;11.00;99.90;;;;;;5074770;28;20059;-83
2021/12/30 08:38:10;;;;;;;45.25;8.60;;;11.00;99.90;;;;;;5057519;28;20390;-85
2021/12/30 08:40:37;;;;;;;44.70;8.27;;;11.00;99.90;;;;;;5091223;28;20048;-83
2021/12/30 08:43:03;;;;;;;42.63;7.88;;;11.00;99.90;;;;;;5079053;28;20046;-81
2021/12/30 08:45:29;;;;;;;39.88;6.97;;;11.00;99.90;;;;;;5111866;28;20369;-80
2021/12/30 08:47:54;;;;;;;30.88;6.57;;;11.10;99.90;;;;;;5111864;28;20039;-82
2021/12/30 08:50:20;;;;;;;40.03;8.40;;;11.10;99.90;;;;;;5077444;28;20040;-82
2021/12/30 08:52:47;;;;;;;42.50;7.18;;;11.10;99.90;;;;;;5094792;28;20051;-83
2021/12/30 08:55:14;;;;;;;43.97;7.32;;;11.10;99.90;;;;;;5090877;28;20397;-82
2021/12/30 08:57:41;;;;;;;35.00;6.82;;;11.10;99.90;;;;;;5058728;28;20067;-81
2021/12/30 09:00:15;;;;;;;33.08;5.90;;;11.10;99.90;;;;;;5061416;28;20087;-84
2021/12/30 09:02:41;;;;;;;41.70;7.13;;;11.10;99.90;;;;;;5077764;28;20117;-81
2021/12/30 09:05:08;;;;;;;33.97;5.97;;;11.20;99.90;;;;;;5090601;28;20040;-84
2021/12/30 09:07:34;;;;;;;38.13;5.95;;;11.20;99.90;;;;;;5102986;28;20383;-82
2021/12/30 09:10:00;;;;;;;28.52;5.90;;;11.20;99.90;;;;;;5094923;28;20134;-83
2021/12/30 09:12:26;;;;;;;32.97;5.43;;;11.20;99.90;;;;;;5077338;28;20048;-84
2021/12/30 09:14:51;;;;;;;31.98;5.30;;;11.20;99.90;;;;;;5053281;28;20047;-84
2021/12/30 09:17:17;;;;;;;31.67;5.13;;;11.30;99.90;;;;;;5093984;28;20086;-84
2021/12/30 09:19:43;;;;;;;32.78;6.13;;;11.30;99.90;;;;;;5114161;28;20070;-84
2021/12/30 09:22:09;;;;;;;38.05;6.05;;;11.30;99.90;;;;;;5097354;28;20074;-85
2021/12/30 09:24:34;;;;;;;35.13;5.30;;;11.30;99.90;;;;;;5074224;28;20044;-83
2021/12/30 09:27:01;;;;;;;44.13;6.85;;;11.20;99.90;;;;;;5077363;28;20044;-83
2021/12/30 09:29:26;;;;;;;32.35;5.40;;;11.20;99.90;;;;;;5109857;28;20043;-82
2021/12/30 09:31:52;;;;;;;41.28;6.43;;;11.20;99.90;;;;;;5097126;28;20146;-82
2021/12/30 09:34:20;;;;;;;40.22;7.10;;;11.20;99.90;;;;;;5079499;28;20090;-84
2021/12/30 09:36:46;;;;;;;43.17;6.55;;;11.10;99.90;;;;;;5060553;28;20071;-92
2021/12/30 09:39:14;;;;;;;38.60;6.18;;;11.10;99.90;;;;;;5104288;28;20073;-90
2021/12/30 09:41:43;;;;;;;42.53;7.10;;;11.10;99.90;;;;;;5081609;28;20124;-86
2021/12/30 09:44:11;;;;;;;50.63;6.07;;;11.10;99.90;;;;;;5114880;28;20105;-87
2021/12/30 09:46:38;;;;;;;52.97;6.85;;;11.10;99.90;;;;;;5077331;28;20094;-83
2021/12/30 09:49:06;;;;;;;44.78;7.45;;;11.10;99.90;;;;;;5080824;28;20092;-80
2021/12/30 09:51:32;;;;;;;49.95;7.72;;;11.10;99.90;;;;;;5098146;28;20043;-81
2021/12/30 09:54:00;;;;;;;38.83;6.85;;;11.10;99.90;;;;;;5097592;28;20055;-80
2021/12/30 09:56:27;;;;;;;43.30;6.57;;;11.10;99.90;;;;;;5094683;28;20058;-80
2021/12/30 09:58:53;;;;;;;38.60;6.03;;;11.10;99.90;;;;;;5089309;28;20085;-82
2021/12/30 10:01:20;;;;;;;44.65;6.72;;;11.10;99.90;;;;;;5065068;28;20048;-80
2021/12/30 10:03:46;;;;;;;42.33;6.18;;;11.10;99.90;;;;;;5102171;28;20039;-80
2021/12/30 10:06:17;;;;;;;52.33;6.72;;;11.10;99.90;;;;;;5090121;28;20134;-79
2021/12/30 10:09:10;;;;;;;45.88;6.93;;;11.10;99.90;;;;;;5091617;28;20054;-82
2021/12/30 10:11:43;;;;;;;51.17;7.78;;;11.10;99.90;;;;;;5083410;28;20032;-82
2021/12/30 10:14:09;;;;;;;42.95;6.20;;;11.10;99.90;;;;;;5085795;28;20048;-81
2021/12/30 10:16:34;;;;;;;38.47;6.75;;;11.20;99.90;;;;;;5072674;28;20061;-80
2021/12/30 10:19:05;;;;;;;46.45;7.25;;;11.20;99.90;;;;;;5109018;28;20044;-80
2021/12/30 10:21:40;;;;;;;48.90;7.10;;;11.20;99.90;;;;;;5104309;28;20051;-85
2021/12/30 10:24:08;;;;;;;55.97;7.13;;;11.20;99.90;;;;;;5093459;28;20130;-81
2021/12/30 10:27:20;;;;;;;43.60;6.68;;;11.30;99.90;;;;;;5105703;28;20040;-86
2021/12/30 10:29:48;;;;;;;42.97;6.22;;;11.30;99.90;;;;;;5027389;28;20056;-84
2021/12/30 10:32:23;;;;;;;45.15;7.15;;;11.30;99.90;;;;;;5084735;28;20113;-82
2021/12/30 10:35:25;;;;;;;41.10;6.10;;;11.30;99.90;;;;;;5113603;28;20084;-85
2021/12/30 10:38:03;;;;;;;39.08;7.13;;;11.30;99.90;;;;;;4999378;28;20045;-84
2021/12/30 10:40:33;;;;;;;48.95;7.45;;;11.30;99.90;;;;;;5090948;28;20464;-82
2021/12/30 10:43:19;;;;;;;49.03;6.97;;;11.30;99.90;;;;;;5112175;28;20055;-85
2021/12/30 10:46:02;;;;;;;46.88;7.65;;;11.30;99.90;;;;;;5097294;28;20058;-81
2021/12/30 10:48:28;;;;;;;62.88;7.95;;;11.30;99.90;;;;;;5091898;28;20513;-85
2021/12/30 10:51:33;;;;;;;50.47;7.57;;;11.30;99.90;;;;;;5075093;28;20052;-85
2021/12/30 10:54:10;;;;;;;50.88;7.30;;;11.40;99.90;;;;;;5030641;28;20053;-82
2021/12/30 10:56:39;;;;;;;49.17;9.18;;;11.30;99.90;;;;;;5068335;28;20133;-83
2021/12/30 10:59:26;;;;;;;57.58;9.55;;;11.30;99.90;;;;;;5075848;28;20051;-79
2021/12/30 11:02:05;;;;;;;;;;;11.30;99.90;;;;;;5093765;28;20040;-82
2021/12/30 11:04:43;;;;;;;75.82;11.80;;;11.40;99.90;;;;;;5109918;28;20385;-80
2021/12/30 11:07:11;;;;;;;66.75;10.38;;;11.40;99.90;;;;;;5094222;28;20064;-82
2021/12/30 11:09:48;;;;;;;58.63;9.20;;;11.40;99.90;;;;;;5109189;28;20043;-82
2021/12/30 11:12:15;;;;;;;59.53;9.35;;;11.40;99.90;;;;;;5087690;28;20056;-82
2021/12/30 11:14:41;;;;;;;67.28;10.57;;;11.40;99.90;;;;;;5058740;28;20063;-82
2021/12/30 11:17:12;;;;;;;64.10;10.23;;;11.40;99.90;;;;;;5075912;28;20044;-85
2021/12/30 11:19:50;;;;;;;65.18;11.73;;;11.50;99.90;;;;;;5109189;28;20046;-82
2021/12/30 11:22:20;;;;;;;69.68;11.93;;;11.50;99.90;;;;;;5100882;28;20498;-83
2021/12/30 11:24:47;;;;;;;70.72;11.43;;;11.50;99.90;;;;;;5100305;28;20431;-80
2021/12/30 11:27:15;;;;;;;52.53;9.93;;;11.50;99.90;;;;;;5104590;28;20046;-83
2021/12/30 11:29:45;;;;;;;64.70;10.55;;;11.50;99.90;;;;;;5095554;28;20055;-82
2021/12/30 11:32:15;;;;;;;58.20;9.93;;;11.40;99.90;;;;;;5103035;28;20047;-83
2021/12/30 11:34:41;;;;;;;62.50;10.23;;;11.50;99.90;;;;;;5103397;28;20047;-82
2021/12/30 11:37:08;;;;;;;71.05;10.70;;;11.40;99.90;;;;;;5093627;28;20043;-82
2021/12/30 11:39:34;;;;;;;67.57;9.98;;;11.50;99.90;;;;;;5086372;28;20101;-83
2021/12/30 11:42:10;;;;;;;68.05;10.27;;;11.50;99.90;;;;;;5089718;28;20079;-81
2021/12/30 11:44:41;;;;;;;63.53;10.63;;;11.50;99.90;;;;;;5111886;28;20451;-80
2021/12/30 11:47:28;;;;;;;61.55;9.63;;;11.50;99.90;;;;;;5095765;28;20039;-80
2021/12/30 11:50:15;;;;;;;64.97;10.80;;;11.50;99.90;;;;;;5095341;28;20054;-80
2021/12/30 11:53:12;;;;;;;71.78;10.82;;;11.60;99.90;;;;;;5094987;28;20511;-80
2021/12/30 11:55:47;;;;;;;65.32;10.73;;;11.60;99.90;;;;;;5094869;28;20043;-81
2021/12/30 11:58:35;;;;;;;62.50;9.75;;;11.60;99.90;;;;;;5095589;28;20039;-83
2021/12/30 12:01:10;;;;;;;55.00;9.63;;;11.70;99.90;;;;;;5111907;28;20048;-81
2021/12/30 12:03:46;;;;;;;64.30;10.38;;;11.80;99.90;;;;;;5112403;28;20048;-81
2021/12/30 12:06:24;;;;;;;63.85;10.55;;;11.90;99.90;;;;;;5095304;28;20060;-81
2021/12/30 12:08:53;;;;;;;49.25;8.63;;;12.00;99.90;;;;;;5095215;28;20056;-82
2021/12/30 12:11:28;;;;;;;60.58;11.15;;;12.00;99.90;;;;;;5112183;28;20124;-81
2021/12/30 12:14:09;;;;;;;49.83;10.17;;;12.10;99.90;;;;;;5078598;28;20048;-81
2021/12/30 12:16:55;;;;;;;60.28;11.23;;;12.10;99.90;;;;;;5095043;28;20306;-80
2021/12/30 12:19:45;;;;;;;54.70;9.23;;;12.10;99.90;;;;;;5074928;28;20044;-83
2021/12/30 12:22:17;;;;;;;59.00;10.07;;;12.20;99.90;;;;;;5086774;28;20044;-85
2021/12/30 12:24:43;;;;;;;48.03;9.20;;;12.20;99.90;;;;;;5099358;28;20052;-84
2021/12/30 12:27:31;;;;;;;55.25;8.57;;;12.20;99.90;;;;;;5076856;28;20059;-83
2021/12/30 12:29:57;;;;;;;52.38;9.75;;;12.20;99.90;;;;;;5105465;28;20080;-86
2021/12/30 12:32:29;;;;;;;48.00;8.20;;;12.20;99.90;;;;;;5079936;28;20073;-84
2021/12/30 12:34:56;;;;;;;46.75;8.73;;;12.20;99.90;;;;;;5115334;28;20113;-81
2021/12/30 12:37:37;;;;;;;42.72;7.72;;;12.10;99.90;;;;;;5087507;28;20050;-82
2021/12/30 12:40:28;;;;;;;50.80;8.68;;;12.10;99.90;;;;;;5105888;28;20044;-84
2021/12/30 12:42:55;;;;;;;42.00;8.10;;;12.10;99.90;;;;;;5089606;28;20052;-80
2021/12/30 12:45:52;;;;;;;43.65;8.93;;;12.10;99.90;;;;;;5093999;28;20084;-82